Dover Foxcroft, Maine
Current Conditions -  °F | °C
As of 1:53 AM on Thursday 23 Oct 2014 (Local Time) from KBGR Reporting Station
Drizzle Drizzle  
Wind Chill: 40°   Ceiling: 800
Heat Index: 47°   Visibility: 4mi
Dew Point: 45°   Wind: 17mph
Humidity: 93%   Direction: 40°NE
Pressure: 30.06"   Gusts: 23mph
Location:  45.19°N, 69.23°W
Report Text: KBGR 230553Z 04015G20KT 4SM -DZ OVC008 08/07 A3006 RMK AO2 CIG 006V013 SLP178 P0000 60005 T00830072 10083 20072 58022
Loading
Personal Weather Stations






























Interactive Weather Map
Tropical Storm Tracking
New forecast layout! Learn more

10-Day Weather Forecast

Advertisements
Track Severe Weather on mobile